Worcester, Wisconsin
Current Conditions -  °F | °C
As of 1:55 PM on Thursday 23 Oct 2014 (Local Time) from KPBH Reporting Station
Haze Haze  
Wind Chill: 41°   Ceiling: 400
Heat Index: 45°   Visibility: 2.5mi
Dew Point: 44°   Wind: 6mph
Humidity: 99%   Direction: 190°S
Pressure: 30"   Gusts: NA
Location:  45.7439°N, 90.2959°W
Report Text: KPBH 231855Z AUTO 19005KT 2 1/2SM BR OVC004 07/07 A3000 RMK AO2 T00700068
Loading
Personal Weather Stations






























Interactive Weather Map
Tropical Storm Tracking
New forecast layout! Learn more

10-Day Weather Forecast

Advertisements
Track Severe Weather on mobile